Time;durP1;ratioP1;P1;durP2;ratioP2;P2;SDS_P1;SDS_P2;PMS_P1;PMS_P2;Temp;Humidity;BMP_temperature;BMP_pressure;BME280_temperature;BME280_humidity;BME280_pressure;Samples;Min_cycle;Max_cycle;Signal;HPM_P1;HPM_P2
2020/12/20 00:01:01;;;;;;;4.00;2.92;;;;;;;11.71;88.42;99508.06;5035738;28;20240;-68
2020/12/20 00:03:28;;;;;;;4.00;3.53;;;;;;;11.72;89.25;99504.44;5035523;28;20202;-67
2020/12/20 00:05:54;;;;;;;5.00;3.50;;;;;;;11.70;88.90;99511.75;5035716;28;20214;-68
2020/12/20 00:08:20;;;;;;;4.65;3.08;;;;;;;11.70;89.74;99509.06;5035960;28;20237;-68
2020/12/20 00:10:46;;;;;;;5.18;4.00;;;;;;;11.74;89.79;99507.91;5035385;28;20186;-68
2020/12/20 00:13:17;;;;;;;7.22;4.15;;;;;;;11.70;88.81;99511.75;5035089;28;20643;-69
2020/12/20 00:15:43;;;;;;;5.35;3.90;;;;;;;11.76;89.63;99505.06;5035386;28;20296;-69
2020/12/20 00:18:09;;;;;;;5.40;4.32;;;;;;;11.73;89.93;99505.28;5035412;28;20281;-68
2020/12/20 00:20:35;;;;;;;6.72;4.75;;;;;;;11.54;90.05;99503.78;5035355;28;20704;-68
2020/12/20 00:23:02;;;;;;;9.75;4.35;;;;;;;11.47;90.52;99500.59;5035949;28;20205;-69
2020/12/20 00:25:28;;;;;;;8.15;5.25;;;;;;;11.55;90.10;99500.09;5035167;28;20592;-68
2020/12/20 00:27:54;;;;;;;5.93;3.92;;;;;;;11.40;90.88;99504.66;5035453;28;20277;-68
2020/12/20 00:30:21;;;;;;;9.55;5.00;;;;;;;11.53;90.45;99495.78;5034780;28;20328;-68
2020/12/20 00:32:50;;;;;;;7.90;4.82;;;;;;;11.37;91.35;99498.56;5035331;28;20640;-68
2020/12/20 00:35:16;;;;;;;6.10;3.72;;;;;;;11.31;91.32;99498.97;5035019;28;20673;-68
2020/12/20 00:37:42;;;;;;;6.53;4.65;;;;;;;11.35;92.06;99487.91;5034371;28;20232;-68
2020/12/20 00:40:09;;;;;;;7.97;4.53;;;;;;;11.30;92.71;99491.84;5034756;28;20289;-68
2020/12/20 00:42:35;;;;;;;9.38;6.32;;;;;;;11.33;92.92;99489.81;5034670;28;20293;-67
2020/12/20 00:45:03;;;;;;;7.75;5.07;;;;;;;11.26;93.34;99486.66;5035037;28;20932;-68
2020/12/20 00:47:30;;;;;;;7.90;4.10;;;;;;;11.17;93.90;99486.34;5034890;28;20205;-68
2020/12/20 00:49:56;;;;;;;10.50;4.90;;;;;;;11.22;93.67;99484.25;5035073;28;20707;-68
2020/12/20 00:52:22;;;;;;;9.13;4.50;;;;;;;11.09;93.81;99480.59;5035035;28;20201;-68
2020/12/20 00:54:49;;;;;;;6.97;4.70;;;;;;;11.06;95.09;99477.13;5034366;28;20206;-68
2020/12/20 00:57:15;;;;;;;5.65;4.55;;;;;;;11.09;94.86;99481.44;5034558;28;20206;-68
2020/12/20 00:59:41;;;;;;;7.18;3.97;;;;;;;11.21;94.68;99488.75;5034150;28;20323;-68
2020/12/20 01:02:07;;;;;;;8.32;3.92;;;;;;;11.40;93.46;99480.38;5034093;28;20205;-68
2020/12/20 01:04:34;;;;;;;7.03;4.22;;;;;;;11.60;91.32;99489.91;5033780;28;20198;-68
2020/12/20 01:07:02;;;;;;;6.75;4.20;;;;;;;11.44;92.03;99486.44;5034593;28;20628;-68
2020/12/20 01:09:28;;;;;;;4.72;3.45;;;;;;;11.33;92.39;99486.25;5034322;28;20193;-68
2020/12/20 01:11:57;;;;;;;6.50;3.55;;;;;;;11.46;94.47;99487.19;5014696;28;20503;-68
2020/12/20 01:14:24;;;;;;;5.65;3.75;;;;;;;11.41;92.72;99490.19;5014419;28;20191;-67
2020/12/20 01:16:50;;;;;;;5.47;4.30;;;;;;;11.46;93.64;99492.59;5033533;28;20675;-68
2020/12/20 01:19:16;;;;;;;7.65;4.20;;;;;;;11.46;92.20;99495.28;5033732;28;20202;-67
2020/12/20 01:21:44;;;;;;;5.47;4.05;;;;;;;11.36;92.64;99497.72;5034220;28;20616;-68
2020/12/20 01:24:10;;;;;;;6.75;4.78;;;;;;;11.33;93.23;99503.31;5033812;28;20190;-67
2020/12/20 01:26:36;;;;;;;6.43;4.63;;;;;;;11.30;93.31;99508.88;5033910;28;20198;-68
2020/12/20 01:29:03;;;;;;;9.35;4.53;;;;;;;11.30;93.66;99502.63;5034138;28;20660;-68
2020/12/20 01:31:29;;;;;;;5.40;4.30;;;;;;;11.33;94.16;99506.00;5033815;28;20243;-68
2020/12/20 01:33:55;;;;;;;7.13;4.65;;;;;;;11.37;94.13;99503.97;5034065;28;20613;-69
2020/12/20 01:36:21;;;;;;;6.88;5.32;;;;;;;11.44;96.17;99500.81;5033650;28;20222;-68
2020/12/20 01:38:49;;;;;;;9.88;4.95;;;;;;;11.47;94.88;99506.00;5033880;28;20213;-68
2020/12/20 01:41:15;;;;;;;5.47;3.70;;;;;;;11.55;95.96;99508.19;5033680;28;20205;-68
2020/12/20 01:43:43;;;;;;;9.07;4.85;;;;;;;11.52;95.79;99507.53;5033722;28;20206;-68
2020/12/20 01:46:12;;;;;;;7.68;4.07;;;;;;;11.44;95.48;99503.50;5033604;28;20190;-68
2020/12/20 01:48:39;;;;;;;6.53;4.15;;;;;;;11.42;95.78;99512.66;5033262;28;20211;-69
2020/12/20 01:51:06;;;;;;;5.55;4.32;;;;;;;11.51;96.13;99509.38;5033474;28;20221;-68
2020/12/20 01:53:33;;;;;;;7.35;4.70;;;;;;;11.57;96.06;99505.41;5033767;28;20202;-68
2020/12/20 01:56:02;;;;;;;5.30;3.95;;;;;;;11.55;96.06;99512.72;5032974;28;20221;-68
2020/12/20 01:58:28;;;;;;;5.93;4.00;;;;;;;11.48;94.75;99510.41;5033398;28;20250;-68
2020/12/20 02:00:55;;;;;;;6.05;3.60;;;;;;;11.54;94.24;99502.91;5032711;28;20210;-68
2020/12/20 02:03:22;;;;;;;4.55;3.58;;;;;;;11.51;94.52;99505.78;5033639;28;20221;-69
2020/12/20 02:05:49;;;;;;;7.03;3.50;;;;;;;11.57;94.20;99508.09;5033101;28;20198;-68
2020/12/20 02:08:16;;;;;;;6.50;3.55;;;;;;;11.53;94.44;99510.09;5033363;28;20240;-68
2020/12/20 02:10:42;;;;;;;5.65;4.00;;;;;;;11.57;95.02;99505.41;5033396;28;20273;-69
2020/12/20 02:13:09;;;;;;;8.48;4.03;;;;;;;11.55;95.21;99505.50;5033675;28;20274;-69
2020/12/20 02:15:36;;;;;;;6.57;3.80;;;;;;;11.55;94.71;99507.31;5032654;28;20224;-69
2020/12/20 02:18:02;;;;;;;6.03;3.72;;;;;;;11.53;95.15;99503.84;5033253;28;20277;-68
2020/12/20 02:20:28;;;;;;;7.10;4.28;;;;;;;11.60;95.60;99505.19;5033034;28;20289;-69
2020/12/20 02:22:56;;;;;;;5.40;3.55;;;;;;;11.63;95.82;99505.03;5032859;28;20216;-68
2020/12/20 02:25:22;;;;;;;4.30;3.20;;;;;;;11.59;96.20;99501.63;5032497;28;20202;-68
2020/12/20 02:27:48;;;;;;;5.70;3.17;;;;;;;11.58;96.29;99497.22;5032427;28;20198;-68
2020/12/20 02:30:14;;;;;;;4.75;3.60;;;;;;;11.60;95.88;99507.88;5032636;28;20699;-68
2020/12/20 02:32:41;;;;;;;4.80;2.97;;;;;;;11.65;95.43;99509.34;5032815;28;20206;-68
2020/12/20 02:35:07;;;;;;;6.00;2.40;;;;;;;11.65;96.09;99506.66;5032551;28;20232;-68
2020/12/20 02:37:33;;;;;;;5.03;3.60;;;;;;;11.65;96.19;99509.34;5032048;28;20284;-68
2020/12/20 02:40:00;;;;;;;4.05;3.08;;;;;;;11.59;96.04;99504.34;5032764;28;20186;-68
2020/12/20 02:42:28;;;;;;;4.65;3.65;;;;;;;11.61;96.14;99505.09;5032614;28;20289;-69
2020/12/20 02:44:56;;;;;;;4.88;3.17;;;;;;;11.60;96.08;99503.38;5032747;28;20586;-68
2020/12/20 02:47:22;;;;;;;5.55;3.30;;;;;;;11.55;96.69;99501.94;5032690;28;20663;-68
2020/12/20 02:49:48;;;;;;;5.07;3.65;;;;;;;11.80;95.96;99506.63;5032380;28;20209;-68
2020/12/20 02:52:14;;;;;;;6.70;3.35;;;;;;;11.64;96.08;99509.44;5032707;28;20655;-68
2020/12/20 02:54:40;;;;;;;4.78;2.63;;;;;;;11.68;95.85;99517.22;5032346;28;20206;-68
2020/12/20 02:57:08;;;;;;;5.22;2.80;;;;;;;11.58;96.15;99517.94;5031764;28;20256;-68
2020/12/20 02:59:34;;;;;;;4.57;3.20;;;;;;;11.56;97.02;99514.47;5032194;28;20237;-68
2020/12/20 03:02:00;;;;;;;5.63;3.42;;;;;;;11.78;96.44;99514.84;5032586;28;20609;-69
2020/12/20 03:04:26;;;;;;;4.97;3.35;;;;;;;11.65;96.37;99514.75;5031927;28;20381;-68
2020/12/20 03:06:52;;;;;;;4.70;3.60;;;;;;;11.67;97.03;99510.13;5032417;28;20623;-68
2020/12/20 03:09:18;;;;;;;3.90;3.33;;;;;;;11.59;97.52;99509.72;5032326;28;20644;-68
2020/12/20 03:11:45;;;;;;;5.05;3.15;;;;;;;11.48;98.45;99510.41;5031511;28;20278;-69
2020/12/20 03:14:12;;;;;;;9.52;3.70;;;;;;;11.80;97.21;99506.63;5032214;28;20654;-69
2020/12/20 03:16:38;;;;;;;5.53;3.25;;;;;;;11.69;97.25;99502.78;5031749;28;20235;-69
2020/12/20 03:19:04;;;;;;;6.80;3.10;;;;;;;11.69;96.60;99501.94;5032162;28;20202;-68
2020/12/20 03:21:30;;;;;;;4.43;3.92;;;;;;;11.58;97.17;99496.38;5032104;28;20284;-69
2020/12/20 03:24:00;;;;;;;5.63;3.30;;;;;;;11.52;97.92;99496.75;5031723;28;20192;-68
2020/12/20 03:26:26;;;;;;;4.72;3.15;;;;;;;11.47;98.33;99511.38;5031498;28;20182;-68
2020/12/20 03:28:53;;;;;;;4.05;2.88;;;;;;;11.53;98.45;99509.25;5031790;28;20335;-68
2020/12/20 03:31:20;;;;;;;4.72;3.15;;;;;;;11.52;98.44;99505.69;5031880;28;20277;-68
2020/12/20 03:33:46;;;;;;;4.97;3.30;;;;;;;11.51;97.99;99508.47;5031735;28;20196;-68
2020/12/20 03:36:12;;;;;;;4.07;3.20;;;;;;;11.50;98.68;99514.84;5031768;28;20225;-69
2020/12/20 03:38:38;;;;;;;5.22;3.85;;;;;;;11.46;98.88;99512.34;5031952;28;20719;-69
2020/12/20 03:41:04;;;;;;;6.30;3.50;;;;;;;11.41;99.41;99506.38;5032056;28;21026;-68
2020/12/20 03:43:31;;;;;;;5.63;3.25;;;;;;;11.38;99.38;99511.09;5030981;28;20205;-68
2020/12/20 03:45:59;;;;;;;3.38;2.78;;;;;;;11.35;99.85;99517.56;5031673;28;20292;-69
2020/12/20 03:48:26;;;;;;;5.43;3.55;;;;;;;11.40;99.50;99517.28;5032343;28;21022;-68
2020/12/20 03:50:52;;;;;;;6.22;3.95;;;;;;;11.35;99.56;99513.97;5031755;28;20277;-68
2020/12/20 03:53:18;;;;;;;4.30;3.58;;;;;;;11.30;100.00;99514.25;5031575;28;20221;-68
2020/12/20 03:55:44;;;;;;;5.68;3.50;;;;;;;11.31;100.00;99520.53;5031600;28;20264;-68
2020/12/20 03:58:11;;;;;;;4.88;3.60;;;;;;;11.33;100.00;99515.88;5031572;28;20232;-68
2020/12/20 04:00:37;;;;;;;6.22;3.70;;;;;;;11.32;100.00;99523.13;5031921;28;20193;-68
2020/12/20 04:03:03;;;;;;;6.50;3.50;;;;;;;11.30;100.00;99524.19;5031628;28;20619;-69
2020/12/20 04:05:30;;;;;;;5.45;3.33;;;;;;;11.29;100.00;99531.41;5031537;28;20703;-68
2020/12/20 04:07:56;;;;;;;4.40;3.42;;;;;;;11.26;100.00;99527.09;5031428;28;20229;-68
2020/12/20 04:10:26;;;;;;;8.32;3.97;;;;;;;11.28;100.00;99526.97;5031759;28;20585;-67
2020/12/20 04:12:53;;;;;;;5.40;3.90;;;;;;;11.37;100.00;99531.78;5031654;28;20661;-67
2020/12/20 04:15:19;;;;;;;4.97;3.40;;;;;;;11.39;100.00;99524.47;5031687;28;20192;-68
2020/12/20 04:17:45;;;;;;;7.00;3.85;;;;;;;11.36;100.00;99527.38;5031781;28;20546;-67
2020/12/20 04:20:11;;;;;;;13.43;3.55;;;;;;;11.41;100.00;99532.47;5031281;28;20297;-68
2020/12/20 04:22:38;;;;;;;6.30;3.70;;;;;;;11.39;99.88;99532.56;5031367;28;20202;-68
2020/12/20 04:25:04;;;;;;;4.88;3.17;;;;;;;11.43;99.52;99535.94;5034311;28;20606;-68
2020/12/20 04:27:30;;;;;;;9.02;3.95;;;;;;;11.41;99.93;99538.72;5034904;28;20185;-68
2020/12/20 04:29:58;;;;;;;5.35;4.22;;;;;;;11.42;99.25;99528.81;5035294;28;20292;-69
2020/12/20 04:32:24;;;;;;;6.88;3.95;;;;;;;11.46;99.49;99528.53;5035230;28;20186;-68
2020/12/20 04:34:50;;;;;;;9.05;4.13;;;;;;;11.41;99.22;99533.31;5035177;28;20285;-68
2020/12/20 04:37:16;;;;;;;6.60;3.47;;;;;;;11.42;99.25;99534.22;5035347;28;20210;-68
2020/12/20 04:39:44;;;;;;;5.82;3.85;;;;;;;11.42;100.00;99531.53;5034655;28;20186;-70
2020/12/20 04:42:10;;;;;;;4.45;3.45;;;;;;;11.47;99.91;99532.94;5034762;28;20202;-68
2020/12/20 04:44:36;;;;;;;5.90;3.72;;;;;;;11.40;100.00;99536.13;5034774;28;20217;-68
2020/12/20 04:47:03;;;;;;;7.82;3.83;;;;;;;11.34;100.00;99542.75;5034846;28;20186;-68
2020/12/20 04:49:30;;;;;;;5.85;3.92;;;;;;;11.40;100.00;99536.13;5034874;28;20292;-67
2020/12/20 04:51:58;;;;;;;6.50;3.80;;;;;;;11.49;98.65;99540.97;5034556;28;20190;-68
2020/12/20 04:54:25;;;;;;;7.15;3.55;;;;;;;11.45;99.87;99540.25;5034937;28;20197;-69
2020/12/20 04:56:52;;;;;;;7.00;4.03;;;;;;;11.40;100.00;99542.38;5034787;28;20615;-69
2020/12/20 04:59:18;;;;;;;8.15;4.28;;;;;;;11.41;100.00;99549.50;5034633;28;20332;-68
2020/12/20 05:01:44;;;;;;;8.15;3.53;;;;;;;11.34;100.00;99548.16;5034385;28;20205;-68
2020/12/20 05:04:11;;;;;;;7.25;3.80;;;;;;;11.39;100.00;99547.88;5034505;28;20276;-68
2020/12/20 05:06:37;;;;;;;6.75;3.70;;;;;;;11.67;99.00;99557.81;5034430;28;20199;-68
2020/12/20 05:09:04;;;;;;;4.93;4.32;;;;;;;11.73;97.14;99552.00;5034393;28;20278;-68
2020/12/20 05:11:35;;;;;;;5.88;3.55;;;;;;;11.53;98.51;99547.00;5034537;28;20537;-67
2020/12/20 05:14:03;;;;;;;6.80;3.55;;;;;;;11.70;98.11;99544.13;5034711;28;20594;-68
2020/12/20 05:16:34;;;;;;;6.50;3.90;;;;;;;11.68;97.68;99551.44;5034253;28;20202;-68
2020/12/20 05:19:01;;;;;;;8.35;4.07;;;;;;;11.72;96.39;99550.28;5034456;28;20190;-67
2020/12/20 05:21:28;;;;;;;4.88;3.33;;;;;;;11.53;98.60;99553.25;5034359;28;20293;-68
2020/12/20 05:23:55;;;;;;;6.75;3.50;;;;;;;11.52;100.00;99556.94;5033799;28;20197;-69
2020/12/20 05:26:28;;;;;;;5.68;3.65;;;;;;;11.65;99.03;99540.84;5034447;28;20206;-68
2020/12/20 05:29:07;;;;;;;6.00;3.65;;;;;;;11.55;97.60;99539.69;5034163;28;20316;-68
2020/12/20 05:31:34;;;;;;;5.40;3.90;;;;;;;11.41;100.00;99548.66;5033253;28;20251;-68
2020/12/20 05:34:00;;;;;;;5.57;3.25;;;;;;;11.35;100.00;99546.31;5033742;28;20182;-69
2020/12/20 05:36:27;;;;;;;8.02;3.35;;;;;;;11.27;100.00;99541.41;5032226;28;20344;-69
2020/12/20 05:38:54;;;;;;;7.45;4.60;;;;;;;11.18;100.00;99542.84;5033567;28;20198;-69
2020/12/20 05:41:29;;;;;;;5.00;3.20;;;;;;;11.30;100.00;99543.91;5033475;28;20190;-68
2020/12/20 05:46:48;;;;;;;7.65;4.00;;;;;;;11.14;100.00;99552.06;5098718;27;20880;-68
2020/12/20 05:49:19;;;;;;;6.57;4.30;;;;;;;11.12;100.00;99545.91;5089421;28;20200;-68
2020/12/20 05:52:04;;;;;;;7.55;3.83;;;;;;;10.99;100.00;99550.31;5107765;28;20190;-67
2020/12/20 05:54:32;;;;;;;8.02;4.50;;;;;;;10.92;100.00;99552.53;5092462;28;20633;-68
2020/12/20 05:57:08;;;;;;;4.38;3.35;;;;;;;10.88;100.00;99550.97;5101124;28;20644;-68
2020/12/20 05:59:35;;;;;;;8.65;4.45;;;;;;;11.00;100.00;99546.66;5100133;28;20266;-68
2020/12/20 06:02:03;;;;;;;8.95;3.80;;;;;;;11.12;100.00;99548.59;5097533;28;20637;-69
2020/12/20 06:04:30;;;;;;;8.70;4.03;;;;;;;11.12;100.00;99559.38;5096942;28;20218;-68
2020/12/20 06:06:57;;;;;;;7.35;4.30;;;;;;;10.99;100.00;99555.69;5089358;28;20257;-68
2020/12/20 06:09:25;;;;;;;6.00;4.15;;;;;;;10.98;100.00;99562.06;5103158;28;20664;-68
2020/12/20 06:11:53;;;;;;;10.15;4.40;;;;;;;10.89;100.00;99563.47;5099974;28;20183;-68
2020/12/20 06:14:24;;;;;;;13.13;6.63;;;;;;;11.05;100.00;99564.28;5103444;28;20649;-68
2020/12/20 06:17:16;;;;;;;8.63;4.35;;;;;;;11.16;100.00;99570.84;5105125;28;20236;-68
2020/12/20 06:19:59;;;;;;;6.45;5.32;;;;;;;11.09;100.00;99580.28;5096748;28;20188;-68
2020/12/20 06:22:28;;;;;;;9.23;4.93;;;;;;;11.07;100.00;99569.59;5097649;28;20181;-68
2020/12/20 06:24:56;;;;;;;6.20;3.83;;;;;;;11.18;100.00;99568.94;5101085;28;20246;-67
2020/12/20 06:27:24;;;;;;;6.95;4.50;;;;;;;11.16;100.00;99577.09;5099804;28;20190;-68
2020/12/20 06:29:53;;;;;;;5.95;4.00;;;;;;;11.16;100.00;99574.41;5091622;28;20206;-68
2020/12/20 06:32:29;;;;;;;8.25;5.57;;;;;;;11.06;100.00;99575.94;5099915;28;20245;-68
2020/12/20 06:34:57;;;;;;;9.57;5.30;;;;;;;10.98;100.00;99581.78;5099012;28;20191;-69
2020/12/20 06:37:25;;;;;;;6.75;4.43;;;;;;;11.10;100.00;99577.47;5103445;28;20224;-69
2020/12/20 06:39:51;;;;;;;8.60;5.15;;;;;;;10.99;100.00;99582.63;5104284;28;20275;-68
2020/12/20 06:42:35;;;;;;;9.18;6.07;;;;;;;10.97;100.00;99582.75;5088314;28;20548;-68
2020/12/20 06:45:11;;;;;;;10.82;5.20;;;;;;;11.03;100.00;99577.00;5095991;28;20227;-69
2020/12/20 06:47:41;;;;;;;7.32;4.90;;;;;;;11.04;100.00;99580.56;5102327;28;20197;-68
2020/12/20 06:50:07;;;;;;;8.73;4.82;;;;;;;11.04;100.00;99572.47;5089842;28;20297;-69
2020/12/20 06:52:44;;;;;;;6.90;4.50;;;;;;;11.00;100.00;99577.16;5100803;28;20196;-68
2020/12/20 06:55:12;;;;;;;9.95;5.70;;;;;;;11.05;100.00;99575.06;5090322;28;20192;-69
2020/12/20 06:58:12;;;;;;;9.80;5.47;;;;;;;11.19;100.00;99581.44;5084351;28;20203;-68
2020/12/20 07:00:39;;;;;;;12.73;5.95;;;;;;;11.02;100.00;99580.63;5080728;28;20207;-68
2020/12/20 07:03:07;;;;;;;9.65;4.70;;;;;;;11.03;100.00;99582.38;5082530;28;20184;-68
2020/12/20 07:05:34;;;;;;;8.80;5.20;;;;;;;11.10;100.00;99576.59;5092138;28;20211;-68
2020/12/20 07:08:08;;;;;;;10.48;5.97;;;;;;;10.97;100.00;99589.97;5085456;28;20200;-68
2020/12/20 07:10:48;;;;;;;7.70;5.20;;;;;;;10.97;100.00;99593.53;5078262;28;20271;-69
2020/12/20 07:13:16;;;;;;;9.05;5.45;;;;;;;10.80;100.00;99601.72;5085167;28;20651;-67
2020/12/20 07:15:51;;;;;;;8.50;5.30;;;;;;;10.80;100.00;99596.34;5083977;28;20191;-69
2020/12/20 07:18:43;;;;;;;8.70;5.63;;;;;;;10.85;100.00;99597.81;5076447;28;20188;-68
2020/12/20 07:21:10;;;;;;;15.43;5.65;;;;;;;10.85;100.00;99595.13;5067700;28;20282;-68
2020/12/20 07:23:40;;;;;;;11.40;5.85;;;;;;;10.73;100.00;99586.91;5082421;28;20694;-69
2020/12/20 07:26:07;;;;;;;9.90;5.57;;;;;;;10.65;100.00;99598.13;5073975;28;20211;-68
2020/12/20 07:28:33;;;;;;;14.45;6.03;;;;;;;10.73;100.00;99603.06;5082243;28;20195;-68
2020/12/20 07:30:59;;;;;;;11.60;5.88;;;;;;;10.78;100.00;99612.59;5074317;28;20237;-68
2020/12/20 07:33:25;;;;;;;8.02;4.82;;;;;;;10.77;100.00;99612.69;5090280;28;20198;-68
2020/12/20 07:35:52;;;;;;;10.55;7.75;;;;;;;10.75;100.00;99606.53;5085812;28;20191;-68
2020/12/20 07:38:19;;;;;;;9.65;6.20;;;;;;;10.74;100.00;99600.28;5093657;28;20189;-68
2020/12/20 07:40:45;;;;;;;9.75;6.93;;;;;;;10.67;100.00;99609.66;5089455;28;20189;-68
2020/12/20 07:43:11;;;;;;;10.23;6.40;;;;;;;10.76;100.00;99610.94;5073738;28;20276;-68
2020/12/20 07:45:38;;;;;;;16.45;6.72;;;;;;;10.75;100.00;99603.84;5091159;28;20224;-68
2020/12/20 07:48:04;;;;;;;10.10;6.60;;;;;;;10.78;100.00;99609.91;5079732;28;20603;-68
2020/12/20 07:50:30;;;;;;;10.90;7.03;;;;;;;10.84;100.00;99611.38;5081484;28;20716;-69
2020/12/20 07:52:57;;;;;;;11.32;6.55;;;;;;;10.93;100.00;99599.19;5073376;28;20192;-69
2020/12/20 07:55:23;;;;;;;8.75;6.30;;;;;;;10.95;100.00;99606.22;5073591;28;20264;-68
2020/12/20 07:57:49;;;;;;;13.02;7.35;;;;;;;10.89;100.00;99611.97;5084584;28;20192;-69
2020/12/20 08:00:17;;;;;;;16.25;7.88;;;;;;;10.91;100.00;99609.19;5084541;28;20656;-69
2020/12/20 08:02:43;;;;;;;11.60;6.70;;;;;;;10.98;100.00;99613.25;5084122;28;20199;-69
2020/12/20 08:05:10;;;;;;;9.70;6.85;;;;;;;11.02;100.00;99623.75;5087286;28;20204;-67
2020/12/20 08:07:37;;;;;;;12.65;6.93;;;;;;;10.90;100.00;99620.91;5082279;28;20222;-69
2020/12/20 08:10:04;;;;;;;8.88;5.53;;;;;;;10.83;100.00;99617.69;5091745;28;20212;-69
2020/12/20 08:12:32;;;;;;;12.60;5.93;;;;;;;10.99;100.00;99615.84;5084518;28;20188;-68
2020/12/20 08:15:06;;;;;;;9.85;5.85;;;;;;;10.99;100.00;99617.66;5092869;28;20226;-68
2020/12/20 08:17:32;;;;;;;10.20;6.10;;;;;;;10.92;100.00;99619.88;5084889;28;20199;-68
2020/12/20 08:20:02;;;;;;;10.18;6.47;;;;;;;10.93;100.00;99624.28;5084208;28;20270;-69
2020/12/20 08:22:34;;;;;;;9.50;5.78;;;;;;;10.96;100.00;99624.09;5093260;28;20249;-68
2020/12/20 08:25:08;;;;;;;9.77;5.30;;;;;;;11.01;100.00;99622.03;5082193;28;20223;-68
2020/12/20 08:27:37;;;;;;;10.80;5.32;;;;;;;11.09;100.00;99620.69;5079888;28;20190;-67
2020/12/20 08:30:06;;;;;;;9.65;6.45;;;;;;;10.92;100.00;99622.56;5087294;28;20208;-68
2020/12/20 08:32:35;;;;;;;11.05;5.70;;;;;;;11.20;100.00;99616.38;5092005;28;20645;-69
2020/12/20 08:35:09;;;;;;;12.88;6.00;;;;;;;11.22;100.00;99619.88;5091929;28;20624;-69
2020/12/20 08:37:36;;;;;;;12.98;7.15;;;;;;;11.05;100.00;99626.25;5076763;28;20184;-69
2020/12/20 08:40:09;;;;;;;7.95;5.25;;;;;;;10.98;100.00;99632.97;5080719;28;20188;-69
2020/12/20 08:42:35;;;;;;;12.05;6.00;;;;;;;11.01;100.00;99643.59;5079975;28;20193;-69
2020/12/20 08:45:11;;;;;;;9.43;5.55;;;;;;;11.21;100.00;99638.81;5073112;28;20320;-68
2020/12/20 08:47:37;;;;;;;10.43;6.03;;;;;;;11.10;100.00;99643.97;5080716;28;20212;-68
2020/12/20 08:50:03;;;;;;;8.75;5.85;;;;;;;11.07;100.00;99645.88;5080254;28;20200;-67
2020/12/20 08:52:31;;;;;;;9.55;5.78;;;;;;;11.08;100.00;99649.47;5080267;28;20187;-68
2020/12/20 08:54:58;;;;;;;10.23;5.20;;;;;;;10.97;98.49;99650.09;5081439;28;20582;-68
2020/12/20 08:57:26;;;;;;;10.25;5.47;;;;;;;11.01;98.99;99651.66;5078427;28;20197;-68
2020/12/20 08:59:53;;;;;;;10.13;5.47;;;;;;;11.05;98.09;99652.34;5080239;28;20194;-68
2020/12/20 09:02:20;;;;;;;10.68;5.05;;;;;;;11.01;98.00;99659.75;5084286;28;20192;-69
2020/12/20 09:04:57;;;;;;;8.13;6.03;;;;;;;11.01;97.85;99664.25;5076168;28;20609;-69
2020/12/20 09:07:34;;;;;;;7.57;5.25;;;;;;;11.03;98.23;99671.31;5080018;28;20241;-68
2020/12/20 09:10:03;;;;;;;8.38;4.55;;;;;;;10.99;98.48;99675.13;5088036;28;20245;-69
2020/12/20 09:12:30;;;;;;;10.75;6.10;;;;;;;10.98;98.91;99680.59;5084806;28;20548;-69
2020/12/20 09:15:06;;;;;;;10.52;5.82;;;;;;;11.06;99.04;99683.72;5082136;28;20632;-68
2020/12/20 09:17:35;;;;;;;11.68;5.85;;;;;;;11.05;98.48;99679.28;5085439;28;20275;-68
2020/12/20 09:20:01;;;;;;;8.50;4.53;;;;;;;11.06;98.22;99681.88;5075230;28;20189;-68
2020/12/20 09:22:55;;;;;;;10.20;5.47;;;;;;;11.16;98.37;99692.13;5085913;28;20333;-70
2020/12/20 09:25:33;;;;;;;8.65;5.13;;;;;;;11.26;98.03;99691.50;5078303;28;20249;-68
2020/12/20 09:28:01;;;;;;;6.07;4.50;;;;;;;11.31;96.17;99696.63;5079818;28;20191;-68
2020/12/20 09:30:33;;;;;;;9.30;5.75;;;;;;;11.35;95.42;99695.47;5068278;28;20279;-69
2020/12/20 09:32:59;;;;;;;8.98;5.25;;;;;;;11.38;95.76;99705.22;5083618;28;20195;-69
2020/12/20 09:35:26;;;;;;;8.73;5.55;;;;;;;11.37;96.03;99704.31;5083485;28;20553;-68
2020/12/20 09:37:53;;;;;;;13.48;7.35;;;;;;;11.39;95.77;99701.53;5084071;28;20195;-69
2020/12/20 09:40:19;;;;;;;10.48;6.20;;;;;;;11.36;95.61;99709.81;5087351;28;20188;-68
2020/12/20 09:42:46;;;;;;;8.48;5.70;;;;;;;11.40;95.70;99708.69;5079811;28;20562;-68
2020/12/20 09:45:13;;;;;;;11.02;4.85;;;;;;;11.48;95.72;99707.22;5071461;28;20246;-68
2020/12/20 09:47:41;;;;;;;9.65;4.60;;;;;;;11.44;91.93;99713.78;5084642;28;20223;-68
2020/12/20 09:50:08;;;;;;;9.25;4.95;;;;;;;11.72;90.86;99709.41;5089809;28;20184;-68
2020/12/20 09:52:35;;;;;;;7.18;4.85;;;;;;;12.19;87.78;99718.25;5083804;28;20251;-68
2020/12/20 09:55:01;;;;;;;7.15;5.00;;;;;;;12.05;87.67;99714.59;5071842;28;20279;-68
2020/12/20 09:57:27;;;;;;;5.10;3.80;;;;;;;12.08;87.45;99724.34;5070912;28;20261;-68
2020/12/20 09:59:54;;;;;;;11.43;5.50;;;;;;;12.11;87.73;99724.13;5071352;28;20199;-68
2020/12/20 10:02:21;;;;;;;8.63;5.57;;;;;;;11.87;90.10;99721.09;5072132;28;20304;-69
2020/12/20 10:04:47;;;;;;;10.90;4.85;;;;;;;11.82;90.99;99718.66;5072268;28;20180;-69
2020/12/20 10:07:13;;;;;;;8.13;5.45;;;;;;;11.78;91.92;99722.53;5071905;28;20280;-69
2020/12/20 10:09:39;;;;;;;10.55;4.43;;;;;;;11.83;91.82;99716.88;5071546;28;20251;-67
2020/12/20 10:12:06;;;;;;;7.38;4.70;;;;;;;11.88;90.57;99714.78;5071686;28;20192;-68
2020/12/20 10:14:32;;;;;;;6.40;4.25;;;;;;;11.81;90.93;99714.25;5084717;28;20195;-69
2020/12/20 10:16:58;;;;;;;6.90;5.20;;;;;;;11.88;91.29;99710.25;5075024;28;20197;-69
2020/12/20 10:19:25;;;;;;;11.15;4.93;;;;;;;11.88;91.24;99712.94;5091828;28;20675;-67
2020/12/20 10:21:52;;;;;;;11.32;5.75;;;;;;;11.95;91.88;99710.72;5088640;28;20680;-67
2020/12/20 10:24:19;;;;;;;8.32;4.55;;;;;;;12.02;90.80;99709.38;5084732;28;20593;-68
2020/12/20 10:26:46;;;;;;;8.68;4.47;;;;;;;12.05;90.85;99711.91;5073948;28;20232;-68
2020/12/20 10:29:14;;;;;;;8.52;4.78;;;;;;;12.08;89.70;99710.84;5080665;28;20199;-68
2020/12/20 10:31:41;;;;;;;6.47;4.80;;;;;;;12.23;89.63;99715.28;5080469;28;20203;-67
2020/12/20 10:34:07;;;;;;;7.80;5.28;;;;;;;12.36;89.08;99720.75;5084991;28;20184;-68
2020/12/20 10:36:35;;;;;;;8.57;5.07;;;;;;;12.40;88.79;99710.63;5096162;28;20191;-68
2020/12/20 10:39:02;;;;;;;4.90;3.58;;;;;;;12.45;88.44;99703.97;5087183;28;20190;-68
2020/12/20 10:41:34;;;;;;;8.45;5.00;;;;;;;12.42;88.13;99706.88;5095707;28;20529;-67
2020/12/20 10:44:00;;;;;;;8.98;4.55;;;;;;;12.49;87.68;99710.03;5079274;28;20284;-68
2020/12/20 10:46:26;;;;;;;7.97;4.72;;;;;;;12.62;86.62;99702.03;5094490;28;20277;-68
2020/12/20 10:48:52;;;;;;;6.13;4.00;;;;;;;12.57;84.70;99699.59;5094152;28;20860;-68
2020/12/20 10:51:19;;;;;;;7.72;4.25;;;;;;;12.48;85.45;99695.69;5083941;28;20626;-68
2020/12/20 10:53:47;;;;;;;7.53;3.63;;;;;;;12.38;86.91;99699.94;5074722;28;20289;-68
2020/12/20 10:56:15;;;;;;;4.63;3.42;;;;;;;12.33;86.58;99701.19;5076607;28;20281;-69
2020/12/20 10:58:42;;;;;;;7.20;3.80;;;;;;;12.40;85.86;99694.44;5077788;28;20224;-68
2020/12/20 11:01:08;;;;;;;4.80;3.00;;;;;;;12.31;86.20;99695.88;5074410;28;20521;-68
2020/12/20 11:03:34;;;;;;;4.35;3.15;;;;;;;12.20;85.45;99699.25;5081967;28;20691;-68
2020/12/20 11:06:00;;;;;;;6.07;3.67;;;;;;;12.19;85.42;99697.53;5090310;28;20216;-68
2020/12/20 11:08:27;;;;;;;5.57;3.67;;;;;;;12.18;85.60;99692.22;5082347;28;20192;-67
2020/12/20 11:10:54;;;;;;;5.28;3.17;;;;;;;12.24;85.08;99690.00;5081507;28;20199;-67
2020/12/20 11:13:23;;;;;;;7.78;3.67;;;;;;;12.21;85.16;99690.22;5077993;28;20200;-67
2020/12/20 11:15:49;;;;;;;5.47;2.70;;;;;;;12.20;85.12;99683.06;5081632;28;20550;-68
2020/12/20 11:18:15;;;;;;;4.05;2.67;;;;;;;12.23;84.33;99682.88;5084850;28;20250;-67
2020/12/20 11:20:42;;;;;;;3.85;2.78;;;;;;;12.36;83.87;99679.38;5088632;28;20720;-67
2020/12/20 11:23:08;;;;;;;4.40;2.65;;;;;;;12.25;84.11;99683.63;5077681;28;20204;-67
2020/12/20 11:25:34;;;;;;;4.50;2.45;;;;;;;12.28;84.04;99678.06;5084076;28;20665;-68
2020/12/20 11:28:01;;;;;;;7.28;3.58;;;;;;;12.59;82.31;99678.75;5074694;28;20197;-68
2020/12/20 11:30:27;;;;;;;6.38;2.03;;;;;;;12.57;82.45;99669.03;5079707;28;20200;-67
2020/12/20 11:32:55;;;;;;;4.80;2.83;;;;;;;12.59;82.12;99677.91;5082903;28;20718;-68
2020/12/20 11:35:21;;;;;;;4.90;2.65;;;;;;;12.51;81.27;99679.28;5074487;28;20189;-67